createdAt,value
2019-03-30T00:00:54.252Z,1005.98
2019-03-30T00:01:54.177Z,1006.00
2019-03-30T00:02:54.168Z,1005.97
2019-03-30T00:03:54.204Z,1005.94
2019-03-30T00:04:54.140Z,1005.91
2019-03-30T00:05:54.131Z,1005.87
2019-03-30T00:06:54.165Z,1005.86
2019-03-30T00:07:54.113Z,1005.92
2019-03-30T00:08:54.098Z,1005.88
2019-03-30T00:09:54.086Z,1005.84
2019-03-30T00:10:54.076Z,1005.80
2019-03-30T00:11:54.062Z,1005.82
2019-03-30T00:12:54.105Z,1005.89
2019-03-30T00:13:54.042Z,1005.82
2019-03-30T00:14:54.034Z,1005.80
2019-03-30T00:15:54.019Z,1005.81
2019-03-30T00:16:54.011Z,1005.85
2019-03-30T00:17:53.995Z,1005.87
2019-03-30T00:18:54.057Z,1005.84
2019-03-30T00:19:53.980Z,1005.83
2019-03-30T00:20:53.999Z,1005.82
2019-03-30T00:21:53.947Z,1005.79
2019-03-30T00:22:53.941Z,1005.81
2019-03-30T00:23:53.926Z,1005.81
2019-03-30T00:24:53.979Z,1005.78
2019-03-30T00:25:53.907Z,1005.79
2019-03-30T00:26:53.902Z,1005.73
2019-03-30T00:27:53.888Z,1005.74
2019-03-30T00:28:53.872Z,1005.76
2019-03-30T00:29:53.862Z,1005.74
2019-03-30T00:30:53.921Z,1005.73
2019-03-30T00:31:53.838Z,1005.72
2019-03-30T00:32:53.830Z,1005.77
2019-03-30T00:33:53.819Z,1005.72
2019-03-30T00:34:53.806Z,1005.71
2019-03-30T00:35:53.797Z,1005.70
2019-03-30T00:36:53.824Z,1005.70
2019-03-30T00:37:53.769Z,1005.71
2019-03-30T00:38:53.812Z,1005.73
2019-03-30T00:39:53.748Z,1005.71
2019-03-30T00:40:53.744Z,1005.72
2019-03-30T00:41:53.726Z,1005.64
2019-03-30T00:42:53.746Z,1005.68
2019-03-30T00:43:53.704Z,1005.66
2019-03-30T00:44:53.715Z,1005.63
2019-03-30T00:45:53.711Z,1005.62
2019-03-30T00:46:53.677Z,1005.67
2019-03-30T00:47:53.659Z,1005.70
2019-03-30T00:48:53.713Z,1005.62
2019-03-30T00:49:53.645Z,1005.58
2019-03-30T00:50:53.674Z,1005.58
2019-03-30T00:51:53.625Z,1005.59
2019-03-30T00:52:53.616Z,1005.62
2019-03-30T00:53:53.597Z,1005.59
2019-03-30T00:54:53.633Z,1005.52
2019-03-30T00:55:53.574Z,1005.56
2019-03-30T00:56:53.560Z,1005.51
2019-03-30T00:57:53.550Z,1005.54
2019-03-30T00:58:53.551Z,1005.50
2019-03-30T00:59:53.588Z,1005.48
2019-03-30T01:00:53.549Z,1005.47
2019-03-30T01:01:53.508Z,1005.43
2019-03-30T01:02:53.496Z,1005.48
2019-03-30T01:03:53.489Z,1005.46
2019-03-30T01:04:53.478Z,1005.46
2019-03-30T01:05:53.469Z,1005.40
2019-03-30T01:06:53.492Z,1005.46
2019-03-30T01:07:53.442Z,1005.37
2019-03-30T01:08:53.434Z,1005.41
2019-03-30T01:09:53.435Z,1005.38
2019-03-30T01:10:53.406Z,1005.39
2019-03-30T01:11:53.403Z,1005.36
2019-03-30T01:12:53.410Z,1005.38
2019-03-30T01:13:53.373Z,1005.39
2019-03-30T01:14:53.368Z,1005.38
2019-03-30T01:15:53.354Z,1005.37
2019-03-30T01:16:53.341Z,1005.38
2019-03-30T01:17:53.332Z,1005.38
2019-03-30T01:18:53.356Z,1005.32
2019-03-30T01:20:02.845Z,1005.32
2019-03-30T01:20:54.297Z,1005.29
2019-03-30T01:21:56.069Z,1005.35
2019-03-30T01:22:53.277Z,1005.26
2019-03-30T01:23:53.264Z,1005.32
2019-03-30T01:24:53.319Z,1005.31
2019-03-30T01:25:53.245Z,1005.24
2019-03-30T01:26:53.234Z,1005.28
2019-03-30T01:27:53.238Z,1005.29
2019-03-30T01:28:53.217Z,1005.28
2019-03-30T01:29:53.209Z,1005.30
2019-03-30T01:30:53.420Z,1005.29
2019-03-30T01:31:53.181Z,1005.27
2019-03-30T01:32:53.170Z,1005.27
2019-03-30T01:33:53.153Z,1005.22
2019-03-30T01:34:53.149Z,1005.24
2019-03-30T01:35:53.134Z,1005.26
2019-03-30T01:36:53.188Z,1005.23
2019-03-30T01:37:53.119Z,1005.29
2019-03-30T01:38:53.099Z,1005.26
2019-03-30T01:39:53.092Z,1005.28
2019-03-30T01:40:53.082Z,1005.29
2019-03-30T01:41:53.066Z,1005.25
2019-03-30T01:42:53.101Z,1005.20
2019-03-30T01:43:53.044Z,1005.26
2019-03-30T01:44:53.100Z,1005.23
2019-03-30T01:45:53.023Z,1005.21
2019-03-30T01:46:53.026Z,1005.22
2019-03-30T01:47:52.997Z,1005.24
2019-03-30T01:48:53.018Z,1005.20
2019-03-30T01:49:52.984Z,1005.21
2019-03-30T01:50:52.972Z,1005.25
2019-03-30T01:51:52.989Z,1005.20
2019-03-30T01:52:52.945Z,1005.22
2019-03-30T01:53:52.983Z,1005.18
2019-03-30T01:54:52.963Z,1005.16
2019-03-30T01:55:52.921Z,1005.11
2019-03-30T01:56:52.914Z,1005.10
2019-03-30T01:57:52.892Z,1005.11
2019-03-30T01:58:52.876Z,1005.08
2019-03-30T01:59:52.871Z,1005.09
2019-03-30T02:00:52.941Z,1005.07
2019-03-30T02:01:52.845Z,1005.08
2019-03-30T02:02:52.831Z,1005.05
2019-03-30T02:03:52.831Z,1005.05
2019-03-30T02:04:52.811Z,1005.05
2019-03-30T02:05:52.804Z,1005.02
2019-03-30T02:06:52.842Z,1005.01
2019-03-30T02:07:52.775Z,1005.03
2019-03-30T02:08:52.766Z,1005.00
2019-03-30T02:09:52.775Z,1004.97
2019-03-30T02:10:52.747Z,1004.99
2019-03-30T02:11:52.740Z,1004.99
2019-03-30T02:12:52.761Z,1004.99
2019-03-30T02:13:52.758Z,1004.95
2019-03-30T02:14:52.702Z,1004.99
2019-03-30T02:15:52.693Z,1004.97
2019-03-30T02:16:52.674Z,1004.92
2019-03-30T02:17:52.675Z,1004.96
2019-03-30T02:18:52.708Z,1004.98
2019-03-30T02:19:52.645Z,1004.96
2019-03-30T02:20:52.634Z,1004.96
2019-03-30T02:21:52.628Z,1004.90
2019-03-30T02:22:52.614Z,1004.91
2019-03-30T02:23:52.604Z,1004.89
2019-03-30T02:24:52.654Z,1004.90
2019-03-30T02:25:52.579Z,1004.94
2019-03-30T02:26:52.570Z,1004.95
2019-03-30T02:27:52.564Z,1004.92
2019-03-30T02:28:52.546Z,1004.91
2019-03-30T02:29:52.533Z,1004.89
2019-03-30T02:30:52.588Z,1004.88
2019-03-30T02:31:52.522Z,1004.93
2019-03-30T02:32:52.512Z,1004.88
2019-03-30T02:33:52.488Z,1004.87
2019-03-30T02:34:52.484Z,1004.92
2019-03-30T02:35:52.473Z,1004.92
2019-03-30T02:36:52.486Z,1004.88
2019-03-30T02:37:52.482Z,1004.87
2019-03-30T02:38:52.440Z,1004.85
2019-03-30T02:39:52.443Z,1004.86
2019-03-30T02:40:52.415Z,1004.85
2019-03-30T02:41:52.410Z,1004.89
2019-03-30T02:42:52.434Z,1004.84
2019-03-30T02:43:52.382Z,1004.82
2019-03-30T02:44:52.384Z,1004.81
2019-03-30T02:45:52.379Z,1004.74
2019-03-30T02:46:52.343Z,1004.85
2019-03-30T02:47:52.338Z,1004.83
2019-03-30T02:48:52.352Z,1004.79
2019-03-30T02:49:52.312Z,1004.78
2019-03-30T02:50:52.314Z,1004.77
2019-03-30T02:51:52.287Z,1004.86
2019-03-30T02:52:52.282Z,1004.78
2019-03-30T02:53:52.275Z,1004.81
2019-03-30T02:54:52.291Z,1004.77
2019-03-30T02:55:52.249Z,1004.78
2019-03-30T02:56:52.266Z,1004.74
2019-03-30T02:57:52.233Z,1004.78
2019-03-30T02:58:52.211Z,1004.76
2019-03-30T02:59:52.205Z,1004.70
2019-03-30T03:00:52.247Z,1004.77
2019-03-30T03:01:52.176Z,1004.72
2019-03-30T03:02:52.220Z,1004.77
2019-03-30T03:03:52.161Z,1004.67
2019-03-30T03:04:52.153Z,1004.70
2019-03-30T03:05:52.136Z,1004.70
2019-03-30T03:06:52.173Z,1004.70
2019-03-30T03:07:52.116Z,1004.66
2019-03-30T03:08:52.107Z,1004.67
2019-03-30T03:09:52.111Z,1004.65
2019-03-30T03:10:52.094Z,1004.60
2019-03-30T03:11:52.072Z,1004.59
2019-03-30T03:12:52.152Z,1004.65
2019-03-30T03:13:52.048Z,1004.67
2019-03-30T03:14:52.040Z,1004.62
2019-03-30T03:15:52.177Z,1004.65
2019-03-30T03:16:52.026Z,1004.62
2019-03-30T03:17:52.041Z,1004.54
2019-03-30T03:18:52.041Z,1004.58
2019-03-30T03:19:51.988Z,1004.52
2019-03-30T03:21:06.677Z,1004.55
2019-03-30T03:21:52.966Z,1004.54
2019-03-30T03:22:51.952Z,1004.55
2019-03-30T03:23:51.937Z,1004.50
2019-03-30T03:24:52.010Z,1004.48
2019-03-30T03:25:51.917Z,1004.49
2019-03-30T03:26:51.915Z,1004.49
2019-03-30T03:27:51.900Z,1004.51
2019-03-30T03:28:51.883Z,1004.47
2019-03-30T03:29:51.879Z,1004.43
2019-03-30T03:30:51.920Z,1004.45
2019-03-30T03:31:51.851Z,1004.38
2019-03-30T03:32:52.157Z,1004.43
2019-03-30T03:33:51.828Z,1004.44
2019-03-30T03:34:51.820Z,1004.45
2019-03-30T03:35:51.806Z,1004.40
2019-03-30T03:36:51.839Z,1004.38
2019-03-30T03:37:51.787Z,1004.38
2019-03-30T03:38:51.786Z,1004.42
2019-03-30T03:39:51.810Z,1004.40
2019-03-30T03:40:51.751Z,1004.43
2019-03-30T03:41:51.743Z,1004.44
2019-03-30T03:42:51.782Z,1004.37
2019-03-30T03:43:51.719Z,1004.37
2019-03-30T03:44:51.710Z,1004.37
2019-03-30T03:45:51.721Z,1004.37
2019-03-30T03:46:51.689Z,1004.42
2019-03-30T03:47:51.680Z,1004.40
2019-03-30T03:48:51.719Z,1004.38
2019-03-30T03:49:51.662Z,1004.41
2019-03-30T03:50:51.643Z,1004.43
2019-03-30T03:51:51.658Z,1004.40
2019-03-30T03:52:51.622Z,1004.48
2019-03-30T03:53:51.705Z,1004.45
2019-03-30T03:54:51.633Z,1004.45
2019-03-30T03:55:51.591Z,1004.48
2019-03-30T03:56:51.581Z,1004.38
2019-03-30T03:57:51.598Z,1004.34
2019-03-30T03:58:51.592Z,1004.37
2019-03-30T03:59:51.556Z,1004.32
2019-03-30T04:00:51.586Z,1004.44
2019-03-30T04:01:51.528Z,1004.45
2019-03-30T04:02:51.513Z,1004.30
2019-03-30T04:03:51.506Z,1004.34
2019-03-30T04:04:51.530Z,1004.45
2019-03-30T04:05:51.490Z,1004.28
2019-03-30T04:06:51.508Z,1004.29
2019-03-30T04:07:51.466Z,1004.33
2019-03-30T04:08:51.449Z,1004.27
2019-03-30T04:09:51.447Z,1004.28
2019-03-30T04:10:51.427Z,1004.32
2019-03-30T04:11:51.445Z,1004.38
2019-03-30T04:12:51.460Z,1004.28
2019-03-30T04:13:51.393Z,1004.26
2019-03-30T04:14:51.389Z,1004.28
2019-03-30T04:15:51.368Z,1004.26
2019-03-30T04:16:51.365Z,1004.34
2019-03-30T04:17:51.362Z,1004.32
2019-03-30T04:18:51.402Z,1004.29
2019-03-30T04:19:51.375Z,1004.24
2019-03-30T04:20:51.320Z,1004.20
2019-03-30T04:21:51.310Z,1004.21
2019-03-30T04:22:51.296Z,1004.30
2019-03-30T04:23:54.201Z,1004.33
2019-03-30T04:24:51.586Z,1004.24
2019-03-30T04:25:51.271Z,1004.15
2019-03-30T04:26:51.290Z,1004.25
2019-03-30T04:27:51.250Z,1004.35
2019-03-30T04:28:51.231Z,1004.39
2019-03-30T04:29:51.220Z,1004.28
2019-03-30T04:30:51.258Z,1004.20
2019-03-30T04:31:51.201Z,1004.14
2019-03-30T04:32:51.215Z,1004.20
2019-03-30T04:33:51.221Z,1004.36
2019-03-30T04:34:51.175Z,1004.21
2019-03-30T04:35:51.157Z,1004.12
2019-03-30T04:36:51.191Z,1004.06
2019-03-30T04:37:51.141Z,1004.10
2019-03-30T04:38:51.127Z,1004.15
2019-03-30T04:39:51.117Z,1004.10
2019-03-30T04:40:51.131Z,1004.08
2019-03-30T04:41:51.098Z,1004.07
2019-03-30T04:42:51.154Z,1004.10
2019-03-30T04:43:51.061Z,1004.07
2019-03-30T04:44:51.061Z,1004.04
2019-03-30T04:45:51.050Z,1004.06
2019-03-30T04:46:51.077Z,1004.03
2019-03-30T04:47:51.027Z,1004.04
2019-03-30T04:48:51.040Z,1004.09
2019-03-30T04:49:51.048Z,1004.13
2019-03-30T04:50:50.990Z,1004.07
2019-03-30T04:51:57.521Z,1004.04
2019-03-30T04:52:51.972Z,1004.02
2019-03-30T04:53:50.966Z,1004.06
2019-03-30T04:54:51.013Z,1003.97
2019-03-30T04:55:50.940Z,1004.00
2019-03-30T04:56:50.945Z,1004.03
2019-03-30T04:57:50.920Z,1003.98
2019-03-30T04:58:50.903Z,1003.99
2019-03-30T04:59:50.895Z,1004.02
2019-03-30T05:00:50.964Z,1004.01
2019-03-30T05:01:50.880Z,1004.02
2019-03-30T05:02:50.873Z,1004.02
2019-03-30T05:03:50.846Z,1004.00
2019-03-30T05:04:50.838Z,1004.02
2019-03-30T05:05:50.830Z,1004.05
2019-03-30T05:06:50.846Z,1004.06
2019-03-30T05:07:50.810Z,1003.99
2019-03-30T05:08:50.792Z,1003.97
2019-03-30T05:09:50.793Z,1004.02
2019-03-30T05:10:50.782Z,1004.04
2019-03-30T05:11:50.764Z,1004.05
2019-03-30T05:12:51.061Z,1004.06
2019-03-30T05:13:50.737Z,1004.06
2019-03-30T05:14:50.750Z,1004.04
2019-03-30T05:15:50.721Z,1004.09
2019-03-30T05:16:50.714Z,1004.07
2019-03-30T05:17:50.703Z,1004.02
2019-03-30T05:18:50.740Z,1004.01
2019-03-30T05:19:50.677Z,1004.05
2019-03-30T05:20:50.663Z,1004.06
2019-03-30T05:21:50.709Z,1004.09
2019-03-30T05:22:51.439Z,1004.06
2019-03-30T05:23:50.637Z,1003.99
2019-03-30T05:24:50.652Z,1004.05
2019-03-30T05:25:50.611Z,1003.99
2019-03-30T05:26:50.606Z,1004.06
2019-03-30T05:27:50.587Z,1004.09
2019-03-30T05:28:50.640Z,1004.05
2019-03-30T05:29:50.568Z,1004.12
2019-03-30T05:30:50.754Z,1004.10
2019-03-30T05:31:50.553Z,1004.12
2019-03-30T05:33:04.692Z,1004.12
2019-03-30T05:33:51.522Z,1004.15
2019-03-30T05:34:50.515Z,1004.08
2019-03-30T05:35:50.537Z,1004.06
2019-03-30T05:36:50.544Z,1004.08
2019-03-30T05:37:50.489Z,1004.12
2019-03-30T05:38:50.466Z,1004.09
2019-03-30T05:39:50.461Z,1004.08
2019-03-30T05:40:50.454Z,1004.12
2019-03-30T05:41:50.439Z,1004.09
2019-03-30T05:42:50.499Z,1004.13
2019-03-30T05:43:50.409Z,1004.17
2019-03-30T05:44:50.401Z,1004.09
2019-03-30T05:45:50.385Z,1004.15
2019-03-30T05:46:50.379Z,1004.18
2019-03-30T05:47:50.369Z,1004.12
2019-03-30T05:48:50.428Z,1004.14
2019-03-30T05:49:50.347Z,1004.13
2019-03-30T05:50:50.331Z,1004.21
2019-03-30T05:51:50.325Z,1004.22
2019-03-30T05:52:50.318Z,1004.14
2019-03-30T05:53:50.312Z,1004.10
2019-03-30T05:54:50.324Z,1004.08
2019-03-30T05:55:50.288Z,1004.08
2019-03-30T05:56:50.266Z,1004.10
2019-03-30T05:57:50.255Z,1004.08
2019-03-30T05:58:50.251Z,1004.04
2019-03-30T05:59:50.236Z,1004.08
2019-03-30T06:00:50.269Z,1004.07
2019-03-30T06:01:50.212Z,1004.01
2019-03-30T06:02:50.223Z,1003.98
2019-03-30T06:03:50.193Z,1004.04
2019-03-30T06:04:50.176Z,1003.99
2019-03-30T06:05:50.206Z,1003.99
2019-03-30T06:06:50.199Z,1003.99
2019-03-30T06:07:50.144Z,1004.00
2019-03-30T06:08:50.142Z,1004.03
2019-03-30T06:09:50.130Z,1004.02
2019-03-30T06:10:50.118Z,1004.02
2019-03-30T06:11:50.128Z,1003.99
2019-03-30T06:12:50.124Z,1004.04
2019-03-30T06:13:50.082Z,1004.02
2019-03-30T06:14:50.089Z,1004.00
2019-03-30T06:15:50.062Z,1003.99
2019-03-30T06:16:50.050Z,1003.99
2019-03-30T06:17:50.037Z,1004.00
2019-03-30T06:18:50.100Z,1003.94
2019-03-30T06:19:50.017Z,1003.94
2019-03-30T06:20:50.016Z,1003.96
2019-03-30T06:21:49.999Z,1003.94
2019-03-30T06:22:49.992Z,1003.89
2019-03-30T06:23:49.970Z,1003.89
2019-03-30T06:24:50.029Z,1003.93
2019-03-30T06:25:49.968Z,1003.90
2019-03-30T06:26:49.949Z,1003.86
2019-03-30T06:27:49.927Z,1003.93
2019-03-30T06:28:49.972Z,1003.92
2019-03-30T06:29:49.917Z,1003.91
2019-03-30T06:30:49.935Z,1003.91
2019-03-30T06:31:49.886Z,1003.88
2019-03-30T06:32:49.893Z,1003.90
2019-03-30T06:33:49.857Z,1003.90
2019-03-30T06:34:49.850Z,1003.87
2019-03-30T06:35:49.835Z,1003.89
2019-03-30T06:36:49.858Z,1003.84
2019-03-30T06:37:49.914Z,1003.83
2019-03-30T06:38:49.801Z,1003.86
2019-03-30T06:39:49.789Z,1003.89
2019-03-30T06:40:49.784Z,1003.89
2019-03-30T06:41:49.778Z,1003.88
2019-03-30T06:42:49.806Z,1003.88
2019-03-30T06:43:49.754Z,1003.88
2019-03-30T06:44:49.738Z,1003.84
2019-03-30T06:45:49.749Z,1003.90
2019-03-30T06:46:49.766Z,1003.89
2019-03-30T06:47:49.702Z,1003.85
2019-03-30T06:48:49.734Z,1003.83
2019-03-30T06:49:49.685Z,1003.82
2019-03-30T06:50:49.671Z,1003.83
2019-03-30T06:51:49.676Z,1003.75
2019-03-30T06:52:57.336Z,1003.79
2019-03-30T06:53:50.807Z,1003.78
2019-03-30T06:54:49.665Z,1003.80
2019-03-30T06:55:49.624Z,1003.87
2019-03-30T06:56:49.613Z,1003.77
2019-03-30T06:57:49.592Z,1003.79
2019-03-30T06:58:49.591Z,1003.72
2019-03-30T06:59:49.652Z,1003.73
2019-03-30T07:00:49.573Z,1003.77
2019-03-30T07:01:49.558Z,1003.75
2019-03-30T07:02:49.547Z,1003.80
2019-03-30T07:03:49.602Z,1003.77
2019-03-30T07:04:49.527Z,1003.77
2019-03-30T07:05:49.601Z,1003.81
2019-03-30T07:06:49.507Z,1003.77
2019-03-30T07:07:49.518Z,1003.76
2019-03-30T07:08:49.479Z,1003.75
2019-03-30T07:09:49.463Z,1003.80
2019-03-30T07:10:49.472Z,1003.75
2019-03-30T07:11:49.479Z,1003.78
2019-03-30T07:12:49.429Z,1003.80
2019-03-30T07:13:49.427Z,1003.75
2019-03-30T07:14:49.408Z,1003.72
2019-03-30T07:15:49.393Z,1003.74
2019-03-30T07:16:49.397Z,1003.73
2019-03-30T07:17:49.410Z,1003.70
2019-03-30T07:18:49.380Z,1003.71
2019-03-30T07:19:49.352Z,1003.70
2019-03-30T07:20:49.399Z,1003.71
2019-03-30T07:21:49.360Z,1003.71
2019-03-30T07:22:51.235Z,1003.66
2019-03-30T07:23:49.536Z,1003.73
2019-03-30T07:24:49.294Z,1003.75
2019-03-30T07:25:49.289Z,1003.73
2019-03-30T07:26:49.272Z,1003.76
2019-03-30T07:27:49.265Z,1003.69
2019-03-30T07:28:49.258Z,1003.71
2019-03-30T07:29:49.477Z,1003.72
2019-03-30T07:30:49.245Z,1003.72
2019-03-30T07:31:49.219Z,1003.67
2019-03-30T07:32:49.229Z,1003.72
2019-03-30T07:33:49.193Z,1003.72
2019-03-30T07:34:49.183Z,1003.70
2019-03-30T07:35:49.208Z,1003.69
2019-03-30T07:36:49.167Z,1003.70
2019-03-30T07:37:49.162Z,1003.70
2019-03-30T07:38:49.141Z,1003.64
2019-03-30T07:39:49.127Z,1003.62
2019-03-30T07:40:49.117Z,1003.59
2019-03-30T07:41:49.137Z,1003.62
2019-03-30T07:42:49.216Z,1003.58
2019-03-30T07:43:49.081Z,1003.60
2019-03-30T07:44:49.074Z,1003.63
2019-03-30T07:45:49.140Z,1003.58
2019-03-30T07:46:49.147Z,1003.63
2019-03-30T07:47:49.198Z,1003.58
2019-03-30T07:48:49.036Z,1003.57
2019-03-30T07:49:49.029Z,1003.59
2019-03-30T07:50:49.012Z,1003.57
2019-03-30T07:51:49.007Z,1003.59
2019-03-30T07:52:49.004Z,1003.57
2019-03-30T07:53:49.010Z,1003.59
2019-03-30T07:54:49.009Z,1003.60
2019-03-30T07:55:48.952Z,1003.58
2019-03-30T07:56:48.937Z,1003.57
2019-03-30T07:57:48.932Z,1003.56
2019-03-30T07:58:48.930Z,1003.62
2019-03-30T07:59:48.933Z,1003.65
2019-03-30T08:00:48.896Z,1003.61
2019-03-30T08:01:48.889Z,1003.60
2019-03-30T08:02:48.870Z,1003.63
2019-03-30T08:03:48.865Z,1003.63
2019-03-30T08:04:48.870Z,1003.65
2019-03-30T08:05:48.889Z,1003.61
2019-03-30T08:06:48.834Z,1003.62
2019-03-30T08:07:48.834Z,1003.63
2019-03-30T08:08:48.816Z,1003.59
2019-03-30T08:09:48.810Z,1003.64
2019-03-30T08:10:48.789Z,1003.65
2019-03-30T08:11:48.816Z,1003.65
2019-03-30T08:12:48.762Z,1003.64
2019-03-30T08:13:48.748Z,1003.69
2019-03-30T08:14:48.744Z,1003.63
2019-03-30T08:15:48.727Z,1003.65
2019-03-30T08:16:48.717Z,1003.66
2019-03-30T08:17:48.753Z,1003.62
2019-03-30T08:18:48.695Z,1003.64
2019-03-30T08:19:50.333Z,1003.63
2019-03-30T08:20:48.679Z,1003.60
2019-03-30T08:21:48.663Z,1003.60
2019-03-30T08:22:48.650Z,1003.61
2019-03-30T08:23:48.679Z,1003.59
2019-03-30T08:24:48.628Z,1003.61
2019-03-30T08:25:48.624Z,1003.66
2019-03-30T08:26:48.627Z,1003.73
2019-03-30T08:27:48.602Z,1003.75
2019-03-30T08:28:48.601Z,1003.76
2019-03-30T08:29:48.650Z,1003.73
2019-03-30T08:30:48.570Z,1003.71
2019-03-30T08:31:49.990Z,1003.73
2019-03-30T08:32:48.562Z,1003.76
2019-03-30T08:33:48.547Z,1003.76
2019-03-30T08:34:48.514Z,1003.72
2019-03-30T08:35:48.563Z,1003.69
2019-03-30T08:36:48.508Z,1003.70
2019-03-30T08:37:48.482Z,1003.68
2019-03-30T08:38:48.469Z,1003.70
2019-03-30T08:39:48.476Z,1003.69
2019-03-30T08:40:48.457Z,1003.71
2019-03-30T08:41:48.474Z,1003.68
2019-03-30T08:42:48.423Z,1003.71
2019-03-30T08:43:48.418Z,1003.70
2019-03-30T08:44:48.412Z,1003.70
2019-03-30T08:45:49.031Z,1003.75
2019-03-30T08:46:48.381Z,1003.69
2019-03-30T08:47:48.412Z,1003.66
2019-03-30T08:48:48.353Z,1003.68
2019-03-30T08:49:48.438Z,1003.65
2019-03-30T08:50:48.335Z,1003.68
2019-03-30T08:51:48.320Z,1003.64
2019-03-30T08:52:48.321Z,1003.65
2019-03-30T08:53:54.580Z,1003.65
2019-03-30T08:54:49.356Z,1003.60
2019-03-30T08:55:48.292Z,1003.54
2019-03-30T08:56:48.266Z,1003.56
2019-03-30T08:57:48.252Z,1003.57
2019-03-30T08:58:48.256Z,1003.57
2019-03-30T08:59:48.477Z,1003.58
2019-03-30T09:00:48.251Z,1003.59
2019-03-30T09:01:48.298Z,1003.62
2019-03-30T09:02:48.195Z,1003.57
2019-03-30T09:03:48.225Z,1003.55
2019-03-30T09:04:48.174Z,1003.58
2019-03-30T09:05:48.203Z,1003.52
2019-03-30T09:06:48.162Z,1003.53
2019-03-30T09:07:48.143Z,1003.52
2019-03-30T09:08:48.361Z,1003.51
2019-03-30T09:09:48.125Z,1003.50
2019-03-30T09:10:48.122Z,1003.48
2019-03-30T09:11:48.143Z,1003.50
2019-03-30T09:12:48.091Z,1003.51
2019-03-30T09:13:48.074Z,1003.50
2019-03-30T09:14:48.086Z,1003.42
2019-03-30T09:15:48.068Z,1003.44
2019-03-30T09:16:48.059Z,1003.43
2019-03-30T09:17:48.105Z,1003.42
2019-03-30T09:18:48.030Z,1003.43
2019-03-30T09:19:48.011Z,1003.40
2019-03-30T09:20:48.023Z,1003.42
2019-03-30T09:21:47.988Z,1003.43
2019-03-30T09:22:47.980Z,1003.37
2019-03-30T09:23:48.029Z,1003.36
2019-03-30T09:24:47.955Z,1003.39
2019-03-30T09:25:47.954Z,1003.42
2019-03-30T09:26:48.034Z,1003.39
2019-03-30T09:27:47.927Z,1003.41
2019-03-30T09:28:47.904Z,1003.36
2019-03-30T09:29:47.953Z,1003.34
2019-03-30T09:30:47.927Z,1003.40
2019-03-30T09:31:47.872Z,1003.34
2019-03-30T09:32:47.862Z,1003.36
2019-03-30T09:33:47.864Z,1003.36
2019-03-30T09:34:47.852Z,1003.35
2019-03-30T09:35:47.960Z,1003.34
2019-03-30T09:36:47.953Z,1003.30
2019-03-30T09:37:47.828Z,1003.28
2019-03-30T09:38:47.795Z,1003.27
2019-03-30T09:39:47.784Z,1003.30
2019-03-30T09:40:47.780Z,1003.22
2019-03-30T09:41:47.810Z,1003.24
2019-03-30T09:42:47.751Z,1003.22
2019-03-30T09:43:47.748Z,1003.29
2019-03-30T09:44:47.737Z,1003.25
2019-03-30T09:45:47.719Z,1003.25
2019-03-30T09:46:47.704Z,1003.16
2019-03-30T09:47:47.801Z,1003.20
2019-03-30T09:48:47.721Z,1003.15
2019-03-30T09:49:47.697Z,1003.18
2019-03-30T09:50:47.743Z,1003.19
2019-03-30T09:51:47.649Z,1003.15
2019-03-30T09:52:47.645Z,1003.15
2019-03-30T09:53:47.680Z,1003.15
2019-03-30T09:54:47.625Z,1003.15
2019-03-30T09:55:47.609Z,1003.22
2019-03-30T09:56:47.595Z,1003.14
2019-03-30T09:57:47.587Z,1003.15
2019-03-30T09:58:47.579Z,1003.14
2019-03-30T09:59:47.640Z,1003.11
2019-03-30T10:00:47.556Z,1003.13
2019-03-30T10:01:47.542Z,1003.14
2019-03-30T10:02:47.554Z,1003.15
2019-03-30T10:03:47.519Z,1003.17
2019-03-30T10:04:47.547Z,1003.12
2019-03-30T10:05:47.553Z,1003.08
2019-03-30T10:06:47.487Z,1003.20
2019-03-30T10:07:47.496Z,1003.11
2019-03-30T10:08:47.463Z,1003.08
2019-03-30T10:09:47.548Z,1003.08
2019-03-30T10:10:47.449Z,1003.10
2019-03-30T10:11:47.615Z,1003.08
2019-03-30T10:12:47.430Z,1003.09
2019-03-30T10:13:47.507Z,1003.07
2019-03-30T10:14:47.454Z,1003.08
2019-03-30T10:15:47.428Z,1003.10
2019-03-30T10:16:48.794Z,1003.06
2019-03-30T10:17:47.462Z,1003.11
2019-03-30T10:18:47.385Z,1003.11
2019-03-30T10:19:58.016Z,1003.11
2019-03-30T10:20:48.338Z,1003.07
2019-03-30T10:21:47.317Z,1003.13
2019-03-30T10:22:47.402Z,1003.05
2019-03-30T10:23:47.377Z,1003.05
2019-03-30T10:24:47.290Z,1003.04
2019-03-30T10:25:47.285Z,1003.06
2019-03-30T10:26:47.274Z,1003.03
2019-03-30T10:27:47.253Z,1003.01
2019-03-30T10:28:47.300Z,1003.03
2019-03-30T10:29:47.259Z,1003.05
2019-03-30T10:30:47.281Z,1003.01
2019-03-30T10:31:47.213Z,1003.04
2019-03-30T10:32:47.199Z,1003.06
2019-03-30T10:33:47.193Z,1003.01
2019-03-30T10:34:47.198Z,1002.99
2019-03-30T10:35:47.354Z,1002.97
2019-03-30T10:36:47.152Z,1002.93
2019-03-30T10:37:47.142Z,1002.94
2019-03-30T10:38:47.130Z,1002.94
2019-03-30T10:39:47.125Z,1002.94
2019-03-30T10:40:47.110Z,1002.90
2019-03-30T10:41:47.128Z,1002.90
2019-03-30T10:42:47.098Z,1002.87
2019-03-30T10:43:47.073Z,1002.84
2019-03-30T10:44:47.063Z,1002.85
2019-03-30T10:45:47.057Z,1002.93
2019-03-30T10:46:47.038Z,1002.87
2019-03-30T10:47:47.098Z,1002.87
2019-03-30T10:48:47.016Z,1002.85
2019-03-30T10:49:47.005Z,1002.80
2019-03-30T10:50:46.994Z,1002.77
2019-03-30T10:51:46.990Z,1002.71
2019-03-30T10:52:46.974Z,1002.78
2019-03-30T10:53:47.020Z,1002.74
2019-03-30T10:54:52.897Z,1002.70
2019-03-30T10:55:47.967Z,1002.79
2019-03-30T10:56:46.954Z,1002.73
2019-03-30T10:57:46.916Z,1002.71
2019-03-30T10:58:46.964Z,1002.84
2019-03-30T10:59:46.970Z,1002.72
2019-03-30T11:00:46.899Z,1002.68
2019-03-30T11:01:46.879Z,1002.64
2019-03-30T11:02:46.876Z,1002.67
2019-03-30T11:03:46.850Z,1002.67
2019-03-30T11:04:46.842Z,1002.65
2019-03-30T11:05:46.856Z,1002.65
2019-03-30T11:06:46.828Z,1002.70
2019-03-30T11:07:46.980Z,1002.66
2019-03-30T11:08:46.858Z,1002.68
2019-03-30T11:09:49.403Z,1002.64
2019-03-30T11:10:46.777Z,1002.65
2019-03-30T11:11:46.801Z,1002.54
2019-03-30T11:12:46.755Z,1002.59
2019-03-30T11:13:46.753Z,1002.62
2019-03-30T11:14:46.876Z,1002.65
2019-03-30T11:15:46.718Z,1002.61
2019-03-30T11:16:46.714Z,1002.58
2019-03-30T11:17:46.731Z,1002.59
2019-03-30T11:18:46.696Z,1002.59
2019-03-30T11:19:46.683Z,1002.62
2019-03-30T11:20:47.163Z,1002.47
2019-03-30T11:21:46.684Z,1002.53
2019-03-30T11:22:46.641Z,1002.54
2019-03-30T11:23:46.673Z,1002.49
2019-03-30T11:24:46.895Z,1002.54
2019-03-30T11:25:46.621Z,1002.57
2019-03-30T11:26:46.594Z,1002.57
2019-03-30T11:27:46.590Z,1002.58
2019-03-30T11:28:46.643Z,1002.51
2019-03-30T11:29:46.595Z,1002.51
2019-03-30T11:30:46.546Z,1002.53
2019-03-30T11:31:46.537Z,1002.49
2019-03-30T11:32:46.544Z,1002.50
2019-03-30T11:33:46.550Z,1002.47
2019-03-30T11:34:46.517Z,1002.45
2019-03-30T11:35:46.572Z,1002.45
2019-03-30T11:36:46.495Z,1002.44
2019-03-30T11:37:46.519Z,1002.46
2019-03-30T11:38:46.460Z,1002.44
2019-03-30T11:39:46.463Z,1002.39
2019-03-30T11:40:46.446Z,1002.36
2019-03-30T11:41:46.484Z,1002.32
2019-03-30T11:42:46.424Z,1002.33
2019-03-30T11:43:46.415Z,1002.33
2019-03-30T11:44:46.451Z,1002.29
2019-03-30T11:45:46.409Z,1002.31
2019-03-30T11:46:46.415Z,1002.22
2019-03-30T11:47:46.431Z,1002.27
2019-03-30T11:48:46.397Z,1002.23
2019-03-30T11:49:46.344Z,1002.23
2019-03-30T11:50:46.355Z,1002.13
2019-03-30T11:51:46.312Z,1002.21
2019-03-30T11:52:46.306Z,1002.21
2019-03-30T11:53:46.401Z,1002.23
2019-03-30T11:54:46.305Z,1002.21
2019-03-30T11:55:46.280Z,1002.13
2019-03-30T11:56:46.258Z,1002.12
2019-03-30T11:57:46.248Z,1002.11
2019-03-30T11:58:46.242Z,1002.14
2019-03-30T11:59:46.261Z,1002.08
2019-03-30T12:00:46.255Z,1002.05
2019-03-30T12:01:46.213Z,1002.13
2019-03-30T12:02:46.250Z,1002.10
2019-03-30T12:03:46.190Z,1002.06
2019-03-30T12:04:46.186Z,1002.11
2019-03-30T12:05:46.340Z,1002.04